createdAt,value
2023-07-10T00:00:01.814Z,52.23
2023-07-10T00:02:28.406Z,52.02
2023-07-10T00:04:55.008Z,51.68
2023-07-10T00:07:21.565Z,52.24
2023-07-10T00:09:48.084Z,54.39
2023-07-10T00:12:14.653Z,53.32
2023-07-10T00:14:41.117Z,53.06
2023-07-10T00:17:07.646Z,49.70
2023-07-10T00:22:17.947Z,50.67
2023-07-10T00:24:44.469Z,48.94
2023-07-10T00:27:11.028Z,54.55
2023-07-10T00:29:37.508Z,54.15
2023-07-10T00:32:04.009Z,52.97
2023-07-10T00:34:30.596Z,53.11
2023-07-10T00:36:57.178Z,50.60
2023-07-10T00:39:23.757Z,50.39
2023-07-10T00:41:50.338Z,52.32
2023-07-10T00:44:16.892Z,53.28
2023-07-10T00:46:43.440Z,51.52
2023-07-10T00:49:10.007Z,50.96
2023-07-10T00:51:36.611Z,52.08
2023-07-10T00:54:03.183Z,51.86
2023-07-10T00:56:29.778Z,51.05
2023-07-10T00:58:56.314Z,51.87
2023-07-10T01:01:22.891Z,50.69
2023-07-10T01:03:49.440Z,52.75
2023-07-10T01:06:15.962Z,52.67
2023-07-10T01:08:42.447Z,53.95
2023-07-10T01:11:08.987Z,55.42
2023-07-10T01:13:35.472Z,50.91
2023-07-10T01:16:02.420Z,52.10
2023-07-10T01:18:29.298Z,52.17
2023-07-10T01:20:56.069Z,54.68
2023-07-10T01:23:22.580Z,53.12
2023-07-10T01:25:49.152Z,54.64
2023-07-10T01:28:15.765Z,53.47
2023-07-10T01:30:42.383Z,53.23
2023-07-10T01:33:08.991Z,55.04
2023-07-10T01:35:35.545Z,53.93
2023-07-10T01:38:02.125Z,54.59
2023-07-10T01:40:28.622Z,55.82
2023-07-10T01:42:55.192Z,53.73
2023-07-10T01:45:21.734Z,55.34
2023-07-10T01:47:48.290Z,54.85
2023-07-10T01:50:14.898Z,54.29
2023-07-10T01:52:41.413Z,54.80
2023-07-10T01:55:08.007Z,55.72
2023-07-10T01:57:34.549Z,54.82
2023-07-10T02:00:01.127Z,55.15
2023-07-10T02:02:27.710Z,54.61
2023-07-10T02:04:54.321Z,54.24
2023-07-10T02:07:20.897Z,55.74
2023-07-10T02:09:47.369Z,54.52
2023-07-10T02:12:13.876Z,58.45
2023-07-10T02:14:40.295Z,55.54
2023-07-10T02:17:06.808Z,56.25
2023-07-10T02:19:33.420Z,56.52
2023-07-10T02:21:59.974Z,56.11
2023-07-10T02:24:26.600Z,55.03
2023-07-10T02:26:53.197Z,54.83
2023-07-10T02:29:19.852Z,56.29
2023-07-10T02:31:46.422Z,53.51
2023-07-10T02:34:13.025Z,55.54
2023-07-10T02:36:39.587Z,55.97
2023-07-10T02:39:06.081Z,55.41
2023-07-10T02:41:32.701Z,54.46
2023-07-10T02:43:59.280Z,55.91
2023-07-10T02:46:25.968Z,54.54
2023-07-10T02:48:52.527Z,52.46
2023-07-10T02:51:19.098Z,53.10
2023-07-10T02:53:45.714Z,53.81
2023-07-10T02:56:12.175Z,54.26
2023-07-10T02:58:38.742Z,55.52
2023-07-10T03:01:05.351Z,55.11
2023-07-10T03:03:31.913Z,55.11
2023-07-10T03:05:58.489Z,56.88
2023-07-10T03:08:24.955Z,54.79
2023-07-10T03:10:51.499Z,55.51
2023-07-10T03:13:18.013Z,53.02
2023-07-10T03:15:44.652Z,54.14
2023-07-10T03:18:11.209Z,54.97
2023-07-10T03:20:37.805Z,54.63
2023-07-10T03:23:04.418Z,54.69
2023-07-10T03:25:31.061Z,52.42
2023-07-10T03:27:57.672Z,55.97
2023-07-10T03:30:24.262Z,56.62
2023-07-10T03:32:50.857Z,53.06
2023-07-10T03:35:17.454Z,52.58
2023-07-10T03:37:43.967Z,52.81
2023-07-10T03:40:10.483Z,53.42
2023-07-10T03:42:37.043Z,53.27
2023-07-10T03:45:03.615Z,55.13
2023-07-10T03:47:30.128Z,51.57
2023-07-10T03:49:56.708Z,58.87
2023-07-10T03:52:23.235Z,57.32
2023-07-10T03:54:49.805Z,57.70
2023-07-10T03:57:16.409Z,56.44
2023-07-10T03:59:43.006Z,54.16
2023-07-10T04:02:09.608Z,57.89
2023-07-10T04:04:36.205Z,56.24
2023-07-10T04:07:02.874Z,55.03
2023-07-10T04:09:29.540Z,58.69
2023-07-10T04:11:56.093Z,59.67
2023-07-10T04:14:22.646Z,55.73
2023-07-10T04:16:49.181Z,55.45
2023-07-10T04:19:15.769Z,56.15
2023-07-10T04:21:42.237Z,57.51
2023-07-10T04:24:08.839Z,58.70
2023-07-10T04:26:35.335Z,58.05
2023-07-10T04:29:02.036Z,61.85
2023-07-10T04:31:28.721Z,54.78
2023-07-10T04:33:55.412Z,59.81
2023-07-10T04:36:22.021Z,56.99
2023-07-10T04:38:48.592Z,60.39
2023-07-10T04:41:15.260Z,61.28
2023-07-10T04:43:41.785Z,62.34
2023-07-10T04:46:08.522Z,62.30
2023-07-10T04:48:35.204Z,64.16
2023-07-10T04:51:01.824Z,61.58
2023-07-10T04:53:28.318Z,63.75
2023-07-10T04:55:54.808Z,62.15
2023-07-10T04:58:21.476Z,61.28
2023-07-10T05:00:49.842Z,61.77
2023-07-10T05:03:17.986Z,65.44
2023-07-10T05:05:44.568Z,63.10
2023-07-10T05:08:12.906Z,61.57
2023-07-10T05:10:40.301Z,64.20
2023-07-10T05:13:06.947Z,64.26
2023-07-10T05:15:33.596Z,61.44
2023-07-10T05:18:00.309Z,65.55
2023-07-10T05:20:26.956Z,67.01
2023-07-10T05:22:53.532Z,65.03
2023-07-10T05:25:20.118Z,64.71
2023-07-10T05:27:46.660Z,66.43
2023-07-10T05:30:13.241Z,68.29
2023-07-10T05:32:39.943Z,66.06
2023-07-10T05:35:06.449Z,67.92
2023-07-10T05:37:33.091Z,64.39
2023-07-10T05:39:59.752Z,67.90
2023-07-10T05:42:26.346Z,70.00
2023-07-10T05:44:52.930Z,64.18
2023-07-10T05:47:19.537Z,66.33
2023-07-10T05:49:46.083Z,71.32
2023-07-10T05:52:12.599Z,66.60
2023-07-10T05:54:39.080Z,68.96
2023-07-10T05:57:05.642Z,72.88
2023-07-10T05:59:32.232Z,70.25
2023-07-10T06:01:58.957Z,71.11
2023-07-10T06:04:27.319Z,68.36
2023-07-10T06:06:55.493Z,71.25
2023-07-10T06:09:22.006Z,68.28
2023-07-10T06:11:48.519Z,71.54
2023-07-10T06:14:15.324Z,70.06
2023-07-10T06:16:42.105Z,68.48
2023-07-10T06:19:08.785Z,67.45
2023-07-10T06:21:35.289Z,65.49
2023-07-10T06:24:01.867Z,64.35
2023-07-10T06:26:28.538Z,66.00
2023-07-10T06:28:55.063Z,68.96
2023-07-10T06:31:21.568Z,67.04
2023-07-10T06:33:48.144Z,65.20
2023-07-10T06:36:14.734Z,69.53
2023-07-10T06:38:41.408Z,63.73
2023-07-10T06:41:07.979Z,65.41
2023-07-10T06:43:34.620Z,68.37
2023-07-10T06:46:01.339Z,67.99
2023-07-10T06:48:27.981Z,65.70
2023-07-10T06:50:54.541Z,66.53
2023-07-10T06:55:50.471Z,65.13
2023-07-10T06:58:17.039Z,68.10
2023-07-10T07:00:43.740Z,66.62
2023-07-10T07:03:10.394Z,63.86
2023-07-10T07:05:37.068Z,64.43
2023-07-10T07:08:03.607Z,63.97
2023-07-10T07:10:30.245Z,62.06
2023-07-10T07:12:56.812Z,59.17
2023-07-10T07:15:23.446Z,64.06
2023-07-10T07:17:50.093Z,65.67
2023-07-10T07:20:16.758Z,67.36
2023-07-10T07:22:43.458Z,64.61
2023-07-10T07:25:10.094Z,67.84
2023-07-10T07:27:36.735Z,64.97
2023-07-10T07:30:03.340Z,68.58
2023-07-10T07:32:29.906Z,62.63
2023-07-10T07:34:56.373Z,65.82
2023-07-10T07:37:22.885Z,61.61
2023-07-10T07:39:49.365Z,62.22
2023-07-10T07:42:15.944Z,61.21
2023-07-10T07:44:42.580Z,60.77
2023-07-10T07:47:09.139Z,60.34
2023-07-10T07:49:35.773Z,61.25
2023-07-10T07:52:02.400Z,63.49
2023-07-10T07:54:28.960Z,60.19
2023-07-10T07:56:55.419Z,62.90
2023-07-10T07:59:22.034Z,62.32
2023-07-10T08:01:48.650Z,62.11
2023-07-10T08:04:15.268Z,62.53
2023-07-10T08:06:44.207Z,61.93
2023-07-10T08:09:13.669Z,63.13
2023-07-10T08:11:40.336Z,61.90
2023-07-10T08:14:07.279Z,63.82
2023-07-10T08:16:34.148Z,65.16
2023-07-10T08:19:00.687Z,63.56
2023-07-10T08:21:27.245Z,65.66
2023-07-10T08:23:53.730Z,66.19
2023-07-10T08:26:20.639Z,66.24
2023-07-10T08:28:47.484Z,63.93
2023-07-10T08:31:16.363Z,64.09
2023-07-10T08:33:43.789Z,61.61
2023-07-10T08:36:18.262Z,62.51
2023-07-10T08:38:44.747Z,62.07
2023-07-10T08:41:11.747Z,62.90
2023-07-10T08:43:38.373Z,62.17
2023-07-10T08:46:05.292Z,63.24
2023-07-10T08:48:32.334Z,60.82
2023-07-10T08:51:03.817Z,63.12
2023-07-10T08:53:31.525Z,64.12
2023-07-10T08:55:59.171Z,67.15
2023-07-10T08:58:25.761Z,63.88
2023-07-10T09:00:52.312Z,68.59
2023-07-10T09:03:18.872Z,68.00
2023-07-10T09:05:45.489Z,67.19
2023-07-10T09:08:15.316Z,68.52
2023-07-10T09:10:41.864Z,67.51
2023-07-10T09:13:08.426Z,69.44
2023-07-10T09:15:36.175Z,69.84
2023-07-10T09:18:03.088Z,69.02
2023-07-10T09:20:29.753Z,70.28
2023-07-10T09:22:56.863Z,69.73
2023-07-10T09:25:23.542Z,68.33
2023-07-10T09:27:50.417Z,69.67
2023-07-10T09:30:17.448Z,69.06
2023-07-10T09:32:47.449Z,70.10
2023-07-10T09:35:14.548Z,66.36
2023-07-10T09:37:41.156Z,69.77
2023-07-10T09:40:09.073Z,68.96
2023-07-10T09:42:35.746Z,72.20
2023-07-10T09:45:02.217Z,72.99
2023-07-10T09:47:28.807Z,71.71
2023-07-10T09:49:55.386Z,69.41
2023-07-10T09:52:22.605Z,71.32
2023-07-10T09:54:49.230Z,73.11
2023-07-10T09:57:15.744Z,68.94
2023-07-10T09:59:42.385Z,72.36
2023-07-10T10:02:08.911Z,73.81
2023-07-10T10:04:35.694Z,71.88
2023-07-10T10:07:02.678Z,72.13
2023-07-10T10:09:29.252Z,75.68
2023-07-10T10:11:57.898Z,74.54
2023-07-10T10:14:26.866Z,77.89
2023-07-10T10:16:57.769Z,72.08
2023-07-10T10:19:24.325Z,74.96
2023-07-10T10:21:50.879Z,72.32
2023-07-10T10:24:18.135Z,78.01
2023-07-10T10:26:44.628Z,72.73
2023-07-10T10:29:11.481Z,75.86
2023-07-10T10:31:40.618Z,74.89
2023-07-10T10:34:08.413Z,74.98
2023-07-10T10:36:38.458Z,76.26
2023-07-10T10:39:05.037Z,77.42
2023-07-10T10:41:31.596Z,75.80
2023-07-10T10:43:58.197Z,74.51
2023-07-10T10:46:24.783Z,76.37
2023-07-10T10:48:51.417Z,75.63
2023-07-10T10:51:18.157Z,73.87
2023-07-10T10:53:45.913Z,74.19
2023-07-10T10:56:12.780Z,76.43
2023-07-10T10:58:39.375Z,77.14
2023-07-10T11:01:06.146Z,76.65
2023-07-10T11:03:32.863Z,77.31
2023-07-10T11:05:59.881Z,77.46
2023-07-10T11:08:27.868Z,75.45
2023-07-10T11:10:55.779Z,77.90
2023-07-10T11:13:22.369Z,77.30
2023-07-10T11:15:50.069Z,78.19
2023-07-10T11:18:16.741Z,76.70
2023-07-10T11:20:47.638Z,77.29
2023-07-10T11:23:14.160Z,77.37
2023-07-10T11:25:40.682Z,78.03
2023-07-10T11:28:07.121Z,78.07
2023-07-10T11:30:34.037Z,80.29
2023-07-10T11:33:00.980Z,79.35
2023-07-10T11:35:27.590Z,76.62
2023-07-10T11:37:54.205Z,77.68
2023-07-10T11:40:21.256Z,76.92
2023-07-10T11:42:47.951Z,74.80
2023-07-10T11:45:21.639Z,77.29
2023-07-10T11:47:52.561Z,76.11
2023-07-10T11:50:19.201Z,74.91
2023-07-10T11:52:45.722Z,75.31
2023-07-10T11:55:12.436Z,75.80
2023-07-10T11:57:41.114Z,78.06
2023-07-10T12:00:07.676Z,76.67
2023-07-10T12:02:37.068Z,77.32
2023-07-10T12:05:04.288Z,74.29
2023-07-10T12:07:30.935Z,73.94
2023-07-10T12:09:57.533Z,76.75
2023-07-10T12:12:24.038Z,77.00
2023-07-10T12:14:50.654Z,77.12
2023-07-10T12:19:50.836Z,73.92
2023-07-10T12:22:17.491Z,77.78
2023-07-10T12:24:44.091Z,77.93
2023-07-10T12:28:09.776Z,75.60
2023-07-10T12:29:57.326Z,76.24
2023-07-10T12:32:23.892Z,76.40
2023-07-10T12:34:50.599Z,75.42
2023-07-10T12:37:17.102Z,76.05
2023-07-10T12:39:43.614Z,76.24
2023-07-10T12:42:10.465Z,76.92
2023-07-10T12:44:40.129Z,76.98
2023-07-10T12:47:07.000Z,78.76
2023-07-10T12:49:33.828Z,77.79
2023-07-10T12:52:00.402Z,78.71
2023-07-10T12:54:27.149Z,79.43
2023-07-10T12:56:53.806Z,80.75
2023-07-10T12:59:20.645Z,76.24
2023-07-10T13:01:47.298Z,80.47
2023-07-10T13:04:13.809Z,76.37
2023-07-10T13:06:40.560Z,74.13
2023-07-10T13:09:07.143Z,81.32
2023-07-10T13:11:41.443Z,75.88
2023-07-10T13:16:37.893Z,77.47
2023-07-10T13:19:04.690Z,79.82
2023-07-10T13:21:31.315Z,77.68
2023-07-10T13:23:57.900Z,77.28
2023-07-10T13:26:24.559Z,78.83
2023-07-10T13:28:51.175Z,76.00
2023-07-10T13:31:18.088Z,81.57
2023-07-10T13:33:44.859Z,81.48
2023-07-10T13:36:11.407Z,82.51
2023-07-10T13:38:38.049Z,83.18
2023-07-10T13:41:04.561Z,77.23
2023-07-10T13:43:31.057Z,76.56
2023-07-10T13:45:57.840Z,76.27
2023-07-10T13:48:24.456Z,77.39
2023-07-10T13:50:51.072Z,80.84
2023-07-10T13:53:17.569Z,79.55
2023-07-10T13:55:44.087Z,80.01
2023-07-10T13:58:10.644Z,79.49
2023-07-10T14:00:37.198Z,80.77
2023-07-10T14:03:03.948Z,80.10
2023-07-10T14:05:30.490Z,81.37
2023-07-10T14:07:57.004Z,82.30
2023-07-10T14:10:23.553Z,78.23
2023-07-10T14:12:50.277Z,80.65
2023-07-10T14:15:16.837Z,80.57
2023-07-10T14:17:43.425Z,84.40
2023-07-10T14:20:09.962Z,84.28
2023-07-10T14:22:36.883Z,85.32
2023-07-10T14:25:03.462Z,83.63
2023-07-10T14:27:30.063Z,82.45
2023-07-10T14:29:56.674Z,86.32
2023-07-10T14:32:23.446Z,83.36
2023-07-10T14:34:50.265Z,82.78
2023-07-10T14:37:16.861Z,84.76
2023-07-10T14:39:43.464Z,83.40
2023-07-10T14:42:10.107Z,83.76
2023-07-10T14:44:36.660Z,80.97
2023-07-10T14:47:08.266Z,82.34
2023-07-10T14:49:35.251Z,83.04
2023-07-10T14:52:02.037Z,80.78
2023-07-10T14:54:28.642Z,83.99
2023-07-10T14:56:55.373Z,83.37
2023-07-10T14:59:22.050Z,84.31
2023-07-10T15:01:48.628Z,80.78
2023-07-10T15:04:15.305Z,81.25
2023-07-10T15:06:42.250Z,80.94
2023-07-10T15:09:08.872Z,80.63
2023-07-10T15:11:35.462Z,82.54
2023-07-10T15:14:02.165Z,81.32
2023-07-10T15:16:28.961Z,82.52
2023-07-10T15:18:55.655Z,80.08
2023-07-10T15:21:22.306Z,80.15
2023-07-10T15:23:49.059Z,80.40
2023-07-10T15:26:16.065Z,81.42
2023-07-10T15:28:42.766Z,90.91
2023-07-10T15:31:09.483Z,90.20
2023-07-10T15:33:36.264Z,79.14
2023-07-10T15:36:02.703Z,78.77
2023-07-10T15:38:29.191Z,81.04
2023-07-10T15:40:55.692Z,76.44
2023-07-10T15:43:24.515Z,76.77
2023-07-10T15:45:51.811Z,78.42
2023-07-10T15:48:18.357Z,76.79
2023-07-10T15:50:44.944Z,76.90
2023-07-10T15:53:12.699Z,76.60
2023-07-10T15:55:39.329Z,77.97
2023-07-10T15:58:05.942Z,79.21
2023-07-10T16:00:32.640Z,76.88
2023-07-10T16:02:59.439Z,80.24
2023-07-10T16:05:26.018Z,75.95
2023-07-10T16:07:52.544Z,78.89
2023-07-10T16:10:19.066Z,76.70
2023-07-10T16:12:45.551Z,74.82
2023-07-10T16:15:12.135Z,72.86
2023-07-10T16:17:38.675Z,73.17
2023-07-10T16:20:05.312Z,73.88
2023-07-10T16:22:31.884Z,71.18
2023-07-10T16:24:58.527Z,75.57
2023-07-10T16:27:25.147Z,75.66
2023-07-10T16:29:51.735Z,75.91
2023-07-10T16:32:18.254Z,73.29
2023-07-10T16:34:44.822Z,73.77
2023-07-10T16:37:11.614Z,73.51
2023-07-10T16:39:38.237Z,75.87
2023-07-10T16:42:04.789Z,74.42
2023-07-10T16:44:31.546Z,74.80
2023-07-10T16:46:58.091Z,78.26
2023-07-10T16:49:24.589Z,78.03
2023-07-10T16:51:51.580Z,77.48
2023-07-10T16:54:18.205Z,77.84
2023-07-10T16:56:44.732Z,73.16
2023-07-10T16:59:11.326Z,74.49
2023-07-10T17:01:38.326Z,73.62
2023-07-10T17:04:05.072Z,73.28
2023-07-10T17:06:31.590Z,76.49
2023-07-10T17:08:58.212Z,77.25
2023-07-10T17:11:24.985Z,79.85
2023-07-10T17:13:51.667Z,79.08
2023-07-10T17:16:18.316Z,79.65
2023-07-10T17:18:44.928Z,77.26
2023-07-10T17:21:11.532Z,79.15
2023-07-10T17:23:38.098Z,74.12
2023-07-10T17:26:04.647Z,76.61
2023-07-10T17:28:31.267Z,78.63
2023-07-10T17:30:57.824Z,78.08
2023-07-10T17:33:24.422Z,75.09
2023-07-10T17:35:51.092Z,76.89
2023-07-10T17:38:17.636Z,86.24
2023-07-10T17:40:44.205Z,95.46
2023-07-10T17:43:10.679Z,86.35
2023-07-10T17:45:37.236Z,79.86
2023-07-10T17:48:03.806Z,80.25
2023-07-10T17:50:30.613Z,78.72
2023-07-10T17:52:57.151Z,80.59
2023-07-10T17:55:23.655Z,77.40
2023-07-10T17:57:50.272Z,80.43
2023-07-10T18:00:16.866Z,78.00
2023-07-10T18:02:43.566Z,81.00
2023-07-10T18:05:10.077Z,80.16
2023-07-10T18:07:36.647Z,80.97
2023-07-10T18:10:03.170Z,79.60
2023-07-10T18:12:29.836Z,81.07
2023-07-10T18:14:56.336Z,77.00
2023-07-10T18:17:22.981Z,80.94
2023-07-10T18:19:49.532Z,87.44
2023-07-10T18:22:16.030Z,89.93
2023-07-10T18:24:42.566Z,84.50
2023-07-10T18:27:09.160Z,84.64
2023-07-10T18:29:35.715Z,81.26
2023-07-10T18:32:02.400Z,82.72
2023-07-10T18:34:29.055Z,80.81
2023-07-10T18:36:55.596Z,82.84
2023-07-10T18:39:22.168Z,80.14
2023-07-10T18:41:48.784Z,81.63
2023-07-10T18:44:15.297Z,86.08
2023-07-10T18:46:41.932Z,80.89
2023-07-10T18:49:14.189Z,80.32
2023-07-10T18:51:41.103Z,85.54
2023-07-10T18:54:07.671Z,81.17
2023-07-10T18:56:34.329Z,81.53
2023-07-10T18:59:00.940Z,79.25
2023-07-10T19:01:27.558Z,81.66
2023-07-10T19:03:54.335Z,83.58
2023-07-10T19:06:20.987Z,80.31
2023-07-10T19:08:47.599Z,80.39
2023-07-10T19:11:14.203Z,80.47
2023-07-10T19:13:40.810Z,82.71
2023-07-10T19:16:07.554Z,84.03
2023-07-10T19:18:34.252Z,83.07
2023-07-10T19:21:00.807Z,79.82
2023-07-10T19:23:27.318Z,80.16
2023-07-10T19:25:53.842Z,81.15
2023-07-10T19:28:20.383Z,82.91
2023-07-10T19:30:47.014Z,85.45
2023-07-10T19:33:13.670Z,81.05
2023-07-10T19:35:40.226Z,83.03
2023-07-10T19:38:06.867Z,83.23
2023-07-10T19:40:33.608Z,79.41
2023-07-10T19:43:00.204Z,79.17
2023-07-10T19:45:26.896Z,83.08
2023-07-10T19:47:53.631Z,83.84
2023-07-10T19:50:20.247Z,82.82
2023-07-10T19:52:46.785Z,82.32
2023-07-10T19:55:13.326Z,84.20
2023-07-10T19:57:39.923Z,84.21
2023-07-10T20:00:06.537Z,84.32
2023-07-10T20:02:33.287Z,85.22
2023-07-10T20:04:59.868Z,83.40
2023-07-10T20:07:26.379Z,83.94
2023-07-10T20:09:52.940Z,85.04
2023-07-10T20:12:19.570Z,85.68
2023-07-10T20:14:46.196Z,84.51
2023-07-10T20:17:12.768Z,87.45
2023-07-10T20:19:39.288Z,86.10
2023-07-10T20:22:05.843Z,82.37
2023-07-10T20:24:32.383Z,84.65
2023-07-10T20:26:59.104Z,84.66
2023-07-10T20:29:25.647Z,87.27
2023-07-10T20:31:52.269Z,90.28
2023-07-10T20:34:18.943Z,85.76
2023-07-10T20:36:45.484Z,84.74
2023-07-10T20:39:12.063Z,85.63
2023-07-10T20:41:38.600Z,86.46
2023-07-10T20:44:05.272Z,83.53
2023-07-10T20:46:31.809Z,85.85
2023-07-10T20:48:58.523Z,83.92
2023-07-10T20:51:25.347Z,82.98
2023-07-10T20:53:51.969Z,86.57
2023-07-10T20:56:18.528Z,85.21
2023-07-10T20:58:45.054Z,83.53
2023-07-10T21:01:11.628Z,85.32
2023-07-10T21:03:38.393Z,85.72
2023-07-10T21:06:05.216Z,83.95
2023-07-10T21:08:32.060Z,80.67
2023-07-10T21:10:58.615Z,79.63
2023-07-10T21:13:25.223Z,78.33
2023-07-10T21:15:51.716Z,81.36
2023-07-10T21:18:18.263Z,83.58
2023-07-10T21:20:44.793Z,82.57
2023-07-10T21:23:11.351Z,82.30
2023-07-10T21:25:37.796Z,85.96
2023-07-10T21:28:04.335Z,81.96
2023-07-10T21:30:31.014Z,83.85
2023-07-10T21:32:57.566Z,84.24
2023-07-10T21:35:27.369Z,82.26
2023-07-10T21:37:54.122Z,83.10
2023-07-10T21:40:20.687Z,82.16
2023-07-10T21:42:47.202Z,84.87
2023-07-10T21:45:13.651Z,85.50
2023-07-10T21:47:40.204Z,83.36
2023-07-10T21:50:06.737Z,82.34
2023-07-10T21:52:33.258Z,84.41
2023-07-10T21:54:59.776Z,80.67
2023-07-10T21:57:26.251Z,80.16
2023-07-10T21:59:52.799Z,79.93
2023-07-10T22:02:19.289Z,79.15
2023-07-10T22:04:46.039Z,81.24
2023-07-10T22:07:12.703Z,81.00
2023-07-10T22:09:39.253Z,77.09
2023-07-10T22:12:05.834Z,78.21
2023-07-10T22:14:32.338Z,79.96
2023-07-10T22:17:13.905Z,76.86
2023-07-10T22:19:41.754Z,77.10
2023-07-10T22:22:08.290Z,77.55
2023-07-10T22:24:34.958Z,79.16
2023-07-10T22:27:01.516Z,79.76
2023-07-10T22:29:28.106Z,77.99
2023-07-10T22:31:54.737Z,79.75
2023-07-10T22:34:21.274Z,83.66
2023-07-10T22:36:47.863Z,77.07
2023-07-10T22:39:14.456Z,77.22
2023-07-10T22:41:41.015Z,81.87
2023-07-10T22:44:07.540Z,80.61
2023-07-10T22:46:34.295Z,78.90
2023-07-10T22:49:00.956Z,77.88
2023-07-10T22:51:27.534Z,79.51
2023-07-10T22:53:54.028Z,78.56
2023-07-10T22:56:20.604Z,76.99
2023-07-10T22:58:47.141Z,79.40
2023-07-10T23:01:13.785Z,77.88
2023-07-10T23:03:40.393Z,77.07
2023-07-10T23:06:07.263Z,77.72
2023-07-10T23:08:34.161Z,76.31
2023-07-10T23:11:02.246Z,74.47
2023-07-10T23:13:29.972Z,73.44
2023-07-10T23:15:56.560Z,78.22
2023-07-10T23:18:23.166Z,76.72
2023-07-10T23:20:49.735Z,73.08
2023-07-10T23:23:16.190Z,79.34
2023-07-10T23:25:42.774Z,75.40
2023-07-10T23:28:09.363Z,77.45
2023-07-10T23:30:36.042Z,75.09
2023-07-10T23:33:02.692Z,74.61
2023-07-10T23:35:29.380Z,73.46
2023-07-10T23:37:55.971Z,77.67
2023-07-10T23:40:22.557Z,75.11
2023-07-10T23:42:49.125Z,76.22
2023-07-10T23:45:15.760Z,76.12
2023-07-10T23:47:42.285Z,75.77
2023-07-10T23:50:08.904Z,76.00
2023-07-10T23:52:35.448Z,74.18
2023-07-10T23:55:01.985Z,77.28
2023-07-10T23:57:28.593Z,74.51
2023-07-10T23:59:55.189Z,77.54
